createdAt,value
2022-11-02T00:01:15.430Z,1.10
2022-11-02T00:03:42.949Z,1.30
2022-11-02T00:06:10.388Z,1.17
2022-11-02T00:08:39.197Z,1.20
2022-11-02T00:11:06.640Z,1.17
2022-11-02T00:13:34.095Z,1.40
2022-11-02T00:16:02.463Z,1.33
2022-11-02T00:18:30.096Z,1.00
2022-11-02T00:20:58.128Z,1.30
2022-11-02T00:23:25.647Z,1.10
2022-11-02T00:25:55.690Z,1.30
2022-11-02T00:28:23.185Z,1.40
2022-11-02T00:30:50.933Z,1.00
2022-11-02T00:33:18.381Z,1.13
2022-11-02T00:35:46.264Z,1.17
2022-11-02T00:38:13.932Z,1.13
2022-11-02T00:40:41.411Z,1.03
2022-11-02T00:43:10.214Z,1.10
2022-11-02T00:45:38.220Z,0.87
2022-11-02T00:48:06.587Z,0.80
2022-11-02T00:50:34.390Z,0.90
2022-11-02T00:53:01.980Z,1.00
2022-11-02T00:55:29.584Z,0.90
2022-11-02T00:58:02.433Z,0.73
2022-11-02T01:00:31.515Z,0.90
2022-11-02T01:03:00.468Z,1.23
2022-11-02T01:05:28.226Z,1.17
2022-11-02T01:07:56.020Z,1.00
2022-11-02T01:10:23.855Z,1.20
2022-11-02T01:12:51.307Z,0.73
2022-11-02T01:15:18.867Z,1.23
2022-11-02T01:17:47.782Z,1.00
2022-11-02T01:20:15.340Z,0.97
2022-11-02T01:22:42.784Z,0.90
2022-11-02T01:25:11.284Z,1.17
2022-11-02T01:27:38.740Z,1.20
2022-11-02T01:30:06.690Z,1.07
2022-11-02T01:32:34.189Z,0.90
2022-11-02T01:35:03.020Z,0.90
2022-11-02T01:37:30.488Z,0.90
2022-11-02T01:39:57.951Z,0.90
2022-11-02T01:42:26.194Z,0.77
2022-11-02T01:44:53.643Z,0.60
2022-11-02T01:47:23.528Z,0.90
2022-11-02T01:49:53.752Z,0.80
2022-11-02T01:52:25.149Z,0.70
2022-11-02T01:54:53.767Z,0.63
2022-11-02T01:57:21.993Z,0.73
2022-11-02T01:59:51.897Z,0.70
2022-11-02T02:02:21.427Z,0.53
2022-11-02T02:04:52.143Z,0.70
2022-11-02T02:07:20.264Z,0.53
2022-11-02T02:09:51.374Z,0.80
2022-11-02T02:12:19.600Z,0.80
2022-11-02T02:14:47.273Z,0.80
2022-11-02T02:17:21.770Z,0.43
2022-11-02T02:19:52.681Z,0.60
2022-11-02T02:22:27.341Z,0.77
2022-11-02T02:24:59.384Z,0.70
2022-11-02T02:27:31.012Z,0.60
2022-11-02T02:30:09.406Z,0.70
2022-11-02T02:32:41.304Z,0.70
2022-11-02T02:35:13.914Z,0.70
2022-11-02T02:37:43.697Z,0.50
2022-11-02T02:40:14.847Z,0.60
2022-11-02T02:42:45.159Z,0.53
2022-11-02T02:45:17.710Z,0.50
2022-11-02T02:47:48.264Z,0.57
2022-11-02T02:50:18.140Z,0.60
2022-11-02T02:52:47.913Z,0.67
2022-11-02T02:55:17.055Z,0.60
2022-11-02T02:57:45.320Z,0.80
2022-11-02T03:00:16.865Z,0.50
2022-11-02T03:03:00.694Z,0.70
2022-11-02T03:05:29.708Z,0.67
2022-11-02T03:07:58.671Z,0.70
2022-11-02T03:10:29.253Z,0.50
2022-11-02T03:13:00.595Z,0.70
2022-11-02T03:15:33.399Z,0.60
2022-11-02T03:18:03.798Z,0.63
2022-11-02T03:20:38.864Z,0.60
2022-11-02T03:23:10.580Z,0.53
2022-11-02T03:25:43.930Z,0.70
2022-11-02T03:28:15.573Z,0.53
2022-11-02T03:30:47.509Z,0.90
2022-11-02T03:33:18.423Z,0.60
2022-11-02T03:35:48.637Z,0.60
2022-11-02T03:38:19.708Z,0.60
2022-11-02T03:40:50.188Z,0.70
2022-11-02T03:43:20.833Z,0.70
2022-11-02T03:45:53.417Z,0.57
2022-11-02T03:48:22.804Z,0.50
2022-11-02T03:50:51.772Z,0.60
2022-11-02T03:53:23.495Z,0.77
2022-11-02T03:55:53.813Z,0.80
2022-11-02T03:58:21.290Z,0.80
2022-11-02T04:00:51.065Z,0.70
2022-11-02T04:03:20.488Z,0.60
2022-11-02T04:05:48.319Z,0.50
2022-11-02T04:08:24.437Z,0.60
2022-11-02T04:11:13.472Z,0.30
2022-11-02T04:14:01.216Z,0.63
2022-11-02T04:16:31.177Z,0.53
2022-11-02T04:19:19.925Z,0.50
2022-11-02T04:22:02.067Z,0.67
2022-11-02T04:24:48.975Z,0.50
2022-11-02T04:27:20.586Z,0.60
2022-11-02T04:29:49.719Z,0.53
2022-11-02T04:32:37.720Z,0.60
2022-11-02T04:35:09.695Z,0.53
2022-11-02T04:37:58.014Z,0.80
2022-11-02T04:40:26.350Z,0.80
2022-11-02T04:42:54.455Z,0.60
2022-11-02T04:45:22.119Z,0.63
2022-11-02T04:47:49.702Z,0.63
2022-11-02T04:50:18.568Z,1.00
2022-11-02T04:52:46.081Z,0.87
2022-11-02T04:55:13.789Z,1.10
2022-11-02T04:57:45.397Z,0.93
2022-11-02T05:00:14.403Z,0.80
2022-11-02T05:02:42.394Z,0.70
2022-11-02T05:05:12.466Z,0.70
2022-11-02T05:07:41.959Z,0.70
2022-11-02T05:10:09.597Z,0.50
2022-11-02T05:12:37.866Z,0.97
2022-11-02T05:15:05.787Z,0.60
2022-11-02T05:17:33.831Z,0.87
2022-11-02T05:20:01.462Z,0.67
2022-11-02T05:22:28.939Z,0.70
2022-11-02T05:24:57.733Z,0.70
2022-11-02T05:27:25.278Z,0.70
2022-11-02T05:29:53.133Z,0.80
2022-11-02T05:32:20.793Z,0.70
2022-11-02T05:34:48.982Z,0.67
2022-11-02T05:37:16.666Z,1.03
2022-11-02T05:39:47.729Z,0.73
2022-11-02T05:42:18.780Z,0.90
2022-11-02T05:44:46.246Z,1.10
2022-11-02T05:47:14.392Z,1.03
2022-11-02T05:49:41.848Z,1.00
2022-11-02T05:52:09.306Z,0.90
2022-11-02T05:54:36.768Z,0.63
2022-11-02T05:57:04.342Z,0.80
2022-11-02T05:59:33.137Z,1.10
2022-11-02T06:02:00.670Z,0.73
2022-11-02T06:04:28.162Z,0.73
2022-11-02T06:06:55.802Z,0.93
2022-11-02T06:09:23.388Z,0.77
2022-11-02T06:11:50.821Z,1.00
2022-11-02T06:14:18.248Z,0.90
2022-11-02T06:16:47.025Z,0.97
2022-11-02T06:21:48.530Z,1.10
2022-11-02T06:24:16.272Z,0.93
2022-11-02T06:26:43.892Z,1.27
2022-11-02T06:29:11.442Z,1.23
2022-11-02T06:31:38.916Z,0.97
2022-11-02T06:34:07.703Z,0.83
2022-11-02T06:36:35.139Z,0.93
2022-11-02T06:39:02.685Z,0.90
2022-11-02T06:41:30.121Z,0.70
2022-11-02T06:43:57.578Z,0.83
2022-11-02T06:46:25.486Z,1.00
2022-11-02T06:48:52.958Z,0.63
2022-11-02T06:51:21.831Z,1.00
2022-11-02T06:53:49.483Z,0.80
2022-11-02T06:56:17.078Z,1.07
2022-11-02T06:58:44.615Z,0.70
2022-11-02T07:01:13.371Z,0.73
2022-11-02T07:03:41.353Z,1.00
2022-11-02T07:06:13.830Z,0.83
2022-11-02T07:08:43.461Z,0.80
2022-11-02T07:11:13.933Z,1.00
2022-11-02T07:13:41.381Z,0.83
2022-11-02T07:16:09.147Z,1.07
2022-11-02T07:18:36.608Z,0.87
2022-11-02T07:21:04.114Z,0.97
2022-11-02T07:23:31.545Z,1.00
2022-11-02T07:26:01.904Z,1.00
2022-11-02T07:28:29.424Z,0.90
2022-11-02T07:30:57.079Z,0.70
2022-11-02T07:33:24.532Z,0.90
2022-11-02T07:35:52.027Z,1.13
2022-11-02T07:38:19.538Z,0.77
2022-11-02T07:40:49.313Z,0.87
2022-11-02T07:43:18.100Z,1.03
2022-11-02T07:45:56.160Z,1.10
2022-11-02T07:48:23.596Z,1.03
2022-11-02T07:50:51.031Z,0.83
2022-11-02T07:53:18.454Z,1.00
2022-11-02T07:55:45.910Z,1.17
2022-11-02T07:58:14.657Z,1.07
2022-11-02T08:00:43.579Z,1.00
2022-11-02T08:03:11.973Z,0.97
2022-11-02T08:05:40.540Z,0.93
2022-11-02T08:08:09.249Z,1.30
2022-11-02T08:10:40.220Z,2.03
2022-11-02T08:13:08.626Z,1.00
2022-11-02T08:15:36.059Z,1.30
2022-11-02T08:18:06.285Z,0.90
2022-11-02T08:20:35.666Z,1.33
2022-11-02T08:23:03.117Z,1.13
2022-11-02T08:25:30.765Z,1.10
2022-11-02T08:27:59.020Z,1.13
2022-11-02T08:30:26.887Z,1.50
2022-11-02T08:32:57.084Z,0.80
2022-11-02T08:35:26.256Z,1.20
2022-11-02T08:37:54.224Z,1.20
2022-11-02T08:40:21.764Z,0.93
2022-11-02T08:42:49.232Z,1.17
2022-11-02T08:45:17.272Z,1.20
2022-11-02T08:47:44.930Z,1.37
2022-11-02T08:50:12.387Z,1.13
2022-11-02T08:52:41.195Z,1.57
2022-11-02T08:55:08.911Z,1.00
2022-11-02T08:57:45.302Z,0.80
2022-11-02T09:00:13.232Z,1.00
2022-11-02T09:02:40.864Z,1.20
2022-11-02T09:05:08.824Z,1.07
2022-11-02T09:07:36.254Z,1.27
2022-11-02T09:10:05.571Z,1.10
2022-11-02T09:12:33.127Z,1.37
2022-11-02T09:15:00.576Z,0.70
2022-11-02T09:17:28.044Z,1.10
2022-11-02T09:19:55.512Z,1.00
2022-11-02T09:22:23.016Z,1.10
2022-11-02T09:24:50.492Z,0.80
2022-11-02T09:27:19.505Z,0.50
2022-11-02T09:29:46.987Z,0.93
2022-11-02T09:32:14.430Z,0.90
2022-11-02T09:34:41.866Z,0.87
2022-11-02T09:37:09.384Z,1.10
2022-11-02T09:39:36.858Z,0.80
2022-11-02T09:42:08.246Z,0.90
2022-11-02T09:44:42.320Z,0.93
2022-11-02T09:47:49.918Z,0.97
2022-11-02T09:50:00.113Z,1.00
2022-11-02T09:52:30.888Z,0.97
2022-11-02T09:54:59.760Z,1.00
2022-11-02T09:57:29.180Z,0.50
2022-11-02T09:59:58.264Z,0.97
2022-11-02T10:02:31.297Z,0.50
2022-11-02T10:05:19.898Z,0.87
2022-11-02T10:07:59.223Z,0.63
2022-11-02T10:10:29.945Z,0.90
2022-11-02T10:13:03.373Z,0.80
2022-11-02T10:15:36.445Z,0.73
2022-11-02T10:18:04.308Z,1.00
2022-11-02T10:20:34.951Z,0.83
2022-11-02T10:23:06.060Z,0.97
2022-11-02T10:25:34.397Z,0.90
2022-11-02T10:30:00.096Z,0.90
2022-11-02T10:32:27.588Z,1.53
2022-11-02T10:34:59.319Z,1.17
2022-11-02T10:37:50.573Z,1.00
2022-11-02T10:40:24.516Z,1.27
2022-11-02T10:43:09.101Z,1.80
2022-11-02T10:45:45.202Z,1.13
2022-11-02T10:48:18.483Z,1.10
2022-11-02T10:50:47.977Z,0.97
2022-11-02T10:56:06.782Z,0.83
2022-11-02T10:58:34.913Z,1.30
2022-11-02T11:01:07.511Z,0.93
2022-11-02T11:03:35.084Z,0.93
2022-11-02T11:06:05.282Z,0.57
2022-11-02T11:08:36.766Z,0.60
2022-11-02T11:11:11.314Z,0.93
2022-11-02T11:16:36.153Z,0.23
2022-11-02T11:21:51.861Z,0.80
2022-11-02T11:24:26.983Z,0.60
2022-11-02T11:27:01.146Z,0.47
2022-11-02T11:29:30.975Z,0.90
2022-11-02T11:32:00.440Z,1.20
2022-11-02T11:34:29.350Z,1.00
2022-11-02T11:37:05.168Z,0.93
2022-11-02T11:39:33.611Z,1.37
2022-11-02T11:42:01.671Z,1.13
2022-11-02T11:44:29.180Z,1.00
2022-11-02T11:46:57.548Z,1.03
2022-11-02T11:52:18.176Z,0.77
2022-11-02T11:54:53.558Z,1.10
2022-11-02T11:57:24.568Z,1.07
2022-11-02T11:59:53.046Z,0.50
2022-11-02T12:02:23.304Z,0.80
2022-11-02T12:04:52.595Z,0.90
2022-11-02T12:07:36.150Z,0.87
2022-11-02T12:10:07.429Z,0.43
2022-11-02T12:12:43.704Z,0.70
2022-11-02T12:15:15.805Z,1.10
2022-11-02T12:17:48.927Z,0.77
2022-11-02T12:20:26.486Z,0.80
2022-11-02T12:22:57.395Z,0.63
2022-11-02T12:25:32.421Z,1.20
2022-11-02T12:28:04.948Z,0.80
2022-11-02T12:30:34.207Z,1.00
2022-11-02T12:33:13.658Z,1.07
2022-11-02T12:36:02.007Z,1.10
2022-11-02T12:38:38.648Z,0.60
2022-11-02T12:41:08.591Z,1.00
2022-11-02T12:43:39.783Z,0.53
2022-11-02T12:46:11.294Z,0.80
2022-11-02T12:48:43.643Z,1.40
2022-11-02T12:51:13.130Z,1.90
2022-11-02T12:53:45.181Z,1.17
2022-11-02T12:56:14.810Z,2.20
2022-11-02T12:58:42.600Z,1.07
2022-11-02T13:01:14.054Z,1.00
2022-11-02T13:03:45.387Z,0.73
2022-11-02T13:06:14.788Z,0.90
2022-11-02T13:08:46.749Z,1.10
2022-11-02T13:11:18.133Z,1.07
2022-11-02T13:13:47.143Z,0.70
2022-11-02T13:16:15.633Z,0.80
2022-11-02T13:18:46.625Z,0.93
2022-11-02T13:21:15.869Z,0.80
2022-11-02T13:23:46.534Z,0.90
2022-11-02T13:26:16.277Z,1.27
2022-11-02T13:28:45.595Z,1.17
2022-11-02T13:31:15.180Z,0.90
2022-11-02T13:33:44.305Z,1.00
2022-11-02T13:36:12.327Z,0.80
2022-11-02T13:38:41.741Z,0.67
2022-11-02T13:41:18.437Z,0.80
2022-11-02T13:43:54.668Z,0.87
2022-11-02T13:46:28.885Z,0.97
2022-11-02T13:48:59.076Z,1.27
2022-11-02T13:51:32.181Z,0.87
2022-11-02T13:54:01.847Z,0.80
2022-11-02T13:56:31.089Z,0.70
2022-11-02T13:59:00.689Z,1.07
2022-11-02T14:01:29.533Z,1.07
2022-11-02T14:04:01.896Z,1.13
2022-11-02T14:06:31.334Z,0.73
2022-11-02T14:09:00.434Z,0.80
2022-11-02T14:11:33.621Z,0.47
2022-11-02T14:14:16.276Z,0.87
2022-11-02T14:16:45.369Z,0.73
2022-11-02T14:19:23.520Z,0.70
2022-11-02T14:22:09.566Z,0.67
2022-11-02T14:24:53.841Z,0.80
2022-11-02T14:27:30.680Z,0.73
2022-11-02T14:29:59.884Z,0.70
2022-11-02T14:32:40.927Z,0.70
2022-11-02T14:35:15.202Z,0.70
2022-11-02T14:37:49.939Z,0.83
2022-11-02T14:40:28.835Z,0.70
2022-11-02T14:43:10.041Z,0.80
2022-11-02T14:45:45.381Z,0.70
2022-11-02T14:48:16.053Z,0.87
2022-11-02T14:50:44.431Z,0.70
2022-11-02T14:53:21.125Z,0.93
2022-11-02T14:55:52.943Z,0.77
2022-11-02T14:58:21.709Z,0.87
2022-11-02T15:00:58.059Z,3.10
2022-11-02T15:03:30.259Z,1.07
2022-11-02T15:06:03.251Z,1.10
2022-11-02T15:08:32.276Z,1.10
2022-11-02T15:10:59.798Z,0.77
2022-11-02T15:13:37.931Z,0.80
2022-11-02T15:16:23.380Z,0.80
2022-11-02T15:18:52.600Z,1.00
2022-11-02T15:21:23.713Z,0.80
2022-11-02T15:23:53.917Z,0.70
2022-11-02T15:26:24.975Z,1.00
2022-11-02T15:28:52.585Z,0.73
2022-11-02T15:31:25.917Z,0.97
2022-11-02T15:33:57.332Z,1.30
2022-11-02T15:36:28.869Z,1.43
2022-11-02T15:38:56.468Z,1.63
2022-11-02T15:41:29.336Z,1.30
2022-11-02T15:44:03.492Z,1.27
2022-11-02T15:46:36.248Z,1.47
2022-11-02T15:49:11.181Z,1.57
2022-11-02T15:51:41.948Z,1.50
2022-11-02T15:54:23.438Z,0.90
2022-11-02T15:56:58.578Z,1.00
2022-11-02T15:59:54.156Z,1.33
2022-11-02T16:02:26.203Z,1.43
2022-11-02T16:04:55.986Z,2.13
2022-11-02T16:07:29.144Z,2.60
2022-11-02T16:10:12.878Z,3.67
2022-11-02T16:12:40.548Z,3.20
2022-11-02T16:15:11.498Z,4.23
2022-11-02T16:17:39.778Z,4.50
2022-11-02T16:20:15.736Z,3.30
2022-11-02T16:22:47.371Z,3.37
2022-11-02T16:25:17.414Z,2.90
2022-11-02T16:27:44.920Z,3.00
2022-11-02T16:30:19.309Z,2.70
2022-11-02T16:32:47.398Z,2.20
2022-11-02T16:35:18.828Z,1.87
2022-11-02T16:37:46.482Z,1.67
2022-11-02T16:40:17.077Z,1.90
2022-11-02T16:42:46.570Z,1.73
2022-11-02T16:45:30.874Z,1.70
2022-11-02T16:47:58.368Z,1.57
2022-11-02T16:50:28.256Z,1.47
2022-11-02T16:52:56.965Z,2.20
2022-11-02T16:55:36.483Z,1.87
2022-11-02T16:58:04.764Z,1.97
2022-11-02T17:00:32.374Z,2.00
2022-11-02T17:03:07.255Z,2.50
2022-11-02T17:05:36.234Z,2.27
2022-11-02T17:08:05.677Z,2.10
2022-11-02T17:10:34.127Z,2.30
2022-11-02T17:13:02.419Z,2.47
2022-11-02T17:15:32.076Z,2.00
2022-11-02T17:18:16.429Z,1.77
2022-11-02T17:20:45.723Z,2.20
2022-11-02T17:23:30.032Z,2.70
2022-11-02T17:26:20.845Z,3.83
2022-11-02T17:28:49.140Z,2.27
2022-11-02T17:31:18.117Z,2.40
2022-11-02T17:33:45.692Z,2.00
2022-11-02T17:36:15.013Z,2.00
2022-11-02T17:38:42.489Z,2.13
2022-11-02T17:41:26.452Z,1.80
2022-11-02T17:43:53.897Z,1.60
2022-11-02T17:46:21.583Z,1.60
2022-11-02T17:48:49.043Z,1.60
2022-11-02T17:51:19.872Z,1.90
2022-11-02T17:53:47.363Z,2.57
2022-11-02T17:56:14.871Z,1.90
2022-11-02T17:58:42.360Z,2.70
2022-11-02T18:01:11.228Z,2.73
2022-11-02T18:03:38.948Z,2.63
2022-11-02T18:06:06.853Z,4.07
2022-11-02T18:08:56.110Z,3.30
2022-11-02T18:11:26.568Z,2.10
2022-11-02T18:13:54.369Z,1.73
2022-11-02T18:16:21.851Z,2.20
2022-11-02T18:18:49.279Z,2.80
2022-11-02T18:21:16.770Z,6.53
2022-11-02T18:23:45.620Z,8.67
2022-11-02T18:26:13.328Z,5.57
2022-11-02T18:28:41.036Z,5.90
2022-11-02T18:31:08.480Z,6.37
2022-11-02T18:33:36.153Z,7.33
2022-11-02T18:36:04.876Z,7.13
2022-11-02T18:38:32.527Z,5.50
2022-11-02T18:41:25.449Z,16.70
2022-11-02T18:43:52.936Z,43.47
2022-11-02T18:46:20.396Z,36.87
2022-11-02T18:48:48.358Z,12.63
2022-11-02T18:51:15.816Z,10.30
2022-11-02T18:53:43.256Z,9.03
2022-11-02T18:56:12.077Z,8.60
2022-11-02T18:58:39.692Z,8.70
2022-11-02T19:01:08.559Z,7.23
2022-11-02T19:03:36.370Z,7.10
2022-11-02T19:06:21.730Z,4.73
2022-11-02T19:09:06.949Z,4.53
2022-11-02T19:11:36.312Z,3.70
2022-11-02T19:14:05.051Z,3.83
2022-11-02T19:16:32.741Z,4.40
2022-11-02T19:19:00.357Z,4.30
2022-11-02T19:21:27.811Z,7.17
2022-11-02T19:23:55.331Z,6.93
2022-11-02T19:26:23.036Z,4.67
2022-11-02T19:28:51.806Z,3.20
2022-11-02T19:31:19.274Z,2.40
2022-11-02T19:33:46.713Z,1.73
2022-11-02T19:36:14.335Z,2.70
2022-11-02T19:38:41.919Z,3.80
2022-11-02T19:41:10.972Z,3.47
2022-11-02T19:43:39.119Z,3.73
2022-11-02T19:46:08.489Z,2.57
2022-11-02T19:48:36.537Z,2.50
2022-11-02T19:51:08.115Z,2.40
2022-11-02T19:53:35.693Z,3.27
2022-11-02T19:56:03.258Z,3.40
2022-11-02T19:58:30.780Z,2.30
2022-11-02T20:00:58.309Z,2.17
2022-11-02T20:03:27.210Z,1.90
2022-11-02T20:05:54.653Z,2.03
2022-11-02T20:08:22.100Z,3.30
2022-11-02T20:10:49.531Z,2.80
2022-11-02T20:13:16.979Z,1.63
2022-11-02T20:15:44.464Z,2.13
2022-11-02T20:18:19.477Z,1.83
2022-11-02T20:20:48.867Z,1.77
2022-11-02T20:23:16.301Z,1.43
2022-11-02T20:25:43.845Z,1.50
2022-11-02T20:28:11.296Z,1.60
2022-11-02T20:30:41.029Z,1.40
2022-11-02T20:33:08.502Z,1.47
2022-11-02T20:35:36.401Z,1.57
2022-11-02T20:38:05.418Z,1.70
2022-11-02T20:40:35.388Z,1.47
2022-11-02T20:43:06.911Z,1.73
2022-11-02T20:45:34.580Z,1.47
2022-11-02T20:48:02.489Z,1.77
2022-11-02T20:50:30.205Z,1.30
2022-11-02T20:52:58.930Z,1.50
2022-11-02T20:55:27.984Z,1.50
2022-11-02T20:57:55.491Z,1.77
2022-11-02T21:00:22.987Z,1.47
2022-11-02T21:02:50.550Z,1.50
2022-11-02T21:05:18.108Z,1.30
2022-11-02T21:07:45.624Z,1.70
2022-11-02T21:10:13.039Z,1.63
2022-11-02T21:12:59.228Z,1.50
2022-11-02T21:15:26.662Z,1.40
2022-11-02T21:17:54.207Z,1.80
2022-11-02T21:20:33.638Z,1.30
2022-11-02T21:23:02.512Z,1.60
2022-11-02T21:25:30.552Z,1.23
2022-11-02T21:27:59.748Z,1.40
2022-11-02T21:30:27.331Z,1.60
2022-11-02T21:32:54.937Z,1.33
2022-11-02T21:35:22.664Z,1.40
2022-11-02T21:37:50.170Z,1.30
2022-11-02T21:40:17.712Z,1.50
2022-11-02T21:42:45.236Z,1.70
2022-11-02T21:45:17.791Z,1.70
2022-11-02T21:47:45.844Z,1.30
2022-11-02T21:50:13.299Z,1.43
2022-11-02T21:52:44.102Z,1.83
2022-11-02T21:55:12.804Z,1.40
2022-11-02T21:57:40.267Z,1.63
2022-11-02T22:00:08.479Z,1.43
2022-11-02T22:02:40.596Z,1.70
2022-11-02T22:05:08.296Z,1.43
2022-11-02T22:07:55.749Z,1.30
2022-11-02T22:10:23.329Z,1.80
2022-11-02T22:13:08.604Z,1.30
2022-11-02T22:15:38.411Z,1.40
2022-11-02T22:18:07.467Z,1.43
2022-11-02T22:20:35.080Z,1.43
2022-11-02T22:23:02.583Z,1.47
2022-11-02T22:25:30.073Z,1.20
2022-11-02T22:27:57.517Z,1.50
2022-11-02T22:30:25.268Z,1.60
2022-11-02T22:32:52.701Z,1.30
2022-11-02T22:35:21.618Z,1.33
2022-11-02T22:38:06.596Z,1.63
2022-11-02T22:40:34.060Z,1.67
2022-11-02T22:43:01.510Z,1.20
2022-11-02T22:45:29.191Z,1.50
2022-11-02T22:47:56.628Z,1.50
2022-11-02T22:50:27.794Z,1.47
2022-11-02T22:52:55.644Z,1.13
2022-11-02T22:55:23.062Z,1.50
2022-11-02T22:57:58.728Z,1.40
2022-11-02T23:00:27.421Z,1.77
2022-11-02T23:02:54.880Z,1.50
2022-11-02T23:05:22.293Z,1.07
2022-11-02T23:07:51.086Z,1.20
2022-11-02T23:10:32.463Z,1.40
2022-11-02T23:12:59.901Z,1.33
2022-11-02T23:15:27.410Z,1.23
2022-11-02T23:17:54.861Z,1.20
2022-11-02T23:20:21.319Z,1.30
2022-11-02T23:23:06.512Z,1.10
2022-11-02T23:25:35.555Z,1.10
2022-11-02T23:28:20.942Z,1.20
2022-11-02T23:31:05.935Z,1.10
2022-11-02T23:33:36.110Z,1.20
2022-11-02T23:36:12.585Z,1.10
2022-11-02T23:38:58.241Z,1.23
2022-11-02T23:41:27.345Z,1.50
2022-11-02T23:44:11.333Z,1.20
2022-11-02T23:46:39.062Z,1.00
2022-11-02T23:49:06.579Z,1.10
2022-11-02T23:51:51.886Z,1.50
2022-11-02T23:54:36.927Z,1.20
2022-11-02T23:57:05.906Z,1.30
2022-11-02T23:59:33.389Z,1.63
